sensor_id;sensor_type;location;lat;lon;timestamp;temperature;humidity
86242;DHT22;76911;51.784;4.658;2024-03-22T00:00:41;12.88;81.88
86242;DHT22;76911;51.784;4.658;2024-03-22T00:03:06;12.98;81.52
86242;DHT22;76911;51.784;4.658;2024-03-22T00:05:32;13.02;81.34
86242;DHT22;76911;51.784;4.658;2024-03-22T00:07:57;12.94;81.58
86242;DHT22;76911;51.784;4.658;2024-03-22T00:10:23;12.94;81.49
86242;DHT22;76911;51.784;4.658;2024-03-22T00:12:49;13.01;81.26
86242;DHT22;76911;51.784;4.658;2024-03-22T00:15:14;12.91;81.61
86242;DHT22;76911;51.784;4.658;2024-03-22T00:17:40;12.89;81.56
86242;DHT22;76911;51.784;4.658;2024-03-22T00:20:06;12.89;81.54
86242;DHT22;76911;51.784;4.658;2024-03-22T00:22:32;12.92;81.43
86242;DHT22;76911;51.784;4.658;2024-03-22T00:24:57;12.89;81.40
86242;DHT22;76911;51.784;4.658;2024-03-22T00:27:23;12.88;81.33
86242;DHT22;76911;51.784;4.658;2024-03-22T00:29:48;12.91;81.29
86242;DHT22;76911;51.784;4.658;2024-03-22T00:32:13;12.91;81.21
86242;DHT22;76911;51.784;4.658;2024-03-22T00:34:39;12.88;81.32
86242;DHT22;76911;51.784;4.658;2024-03-22T00:37:04;12.87;81.39
86242;DHT22;76911;51.784;4.658;2024-03-22T00:39:30;12.83;81.46
86242;DHT22;76911;51.784;4.658;2024-03-22T00:41:55;12.74;81.38
86242;DHT22;76911;51.784;4.658;2024-03-22T00:44:21;12.74;81.31
86242;DHT22;76911;51.784;4.658;2024-03-22T00:46:46;12.73;81.01
86242;DHT22;76911;51.784;4.658;2024-03-22T00:49:12;12.73;80.61
86242;DHT22;76911;51.784;4.658;2024-03-22T00:51:38;12.76;80.36
86242;DHT22;76911;51.784;4.658;2024-03-22T00:54:03;12.76;80.02
86242;DHT22;76911;51.784;4.658;2024-03-22T00:56:29;12.73;80.02
86242;DHT22;76911;51.784;4.658;2024-03-22T00:58:54;12.65;80.28
86242;DHT22;76911;51.784;4.658;2024-03-22T01:01:20;12.68;80.12
86242;DHT22;76911;51.784;4.658;2024-03-22T01:03:45;12.67;80.03
86242;DHT22;76911;51.784;4.658;2024-03-22T01:06:10;12.63;80.05
86242;DHT22;76911;51.784;4.658;2024-03-22T01:08:36;12.63;79.92
86242;DHT22;76911;51.784;4.658;2024-03-22T01:11:01;12.58;79.64
86242;DHT22;76911;51.784;4.658;2024-03-22T01:13:27;12.53;79.61
86242;DHT22;76911;51.784;4.658;2024-03-22T01:15:52;12.40;79.42
86242;DHT22;76911;51.784;4.658;2024-03-22T01:18:18;12.39;79.47
86242;DHT22;76911;51.784;4.658;2024-03-22T01:20:43;12.27;79.70
86242;DHT22;76911;51.784;4.658;2024-03-22T01:23:09;12.25;79.67
86242;DHT22;76911;51.784;4.658;2024-03-22T01:25:34;12.20;79.77
86242;DHT22;76911;51.784;4.658;2024-03-22T01:28:00;12.18;79.82
86242;DHT22;76911;51.784;4.658;2024-03-22T01:30:25;12.09;80.16
86242;DHT22;76911;51.784;4.658;2024-03-22T01:32:55;12.05;80.20
86242;DHT22;76911;51.784;4.658;2024-03-22T01:35:21;11.99;80.50
86242;DHT22;76911;51.784;4.658;2024-03-22T01:37:46;11.92;80.72
86242;DHT22;76911;51.784;4.658;2024-03-22T01:40:13;11.93;80.69
86242;DHT22;76911;51.784;4.658;2024-03-22T01:42:38;11.92;80.83
86242;DHT22;76911;51.784;4.658;2024-03-22T01:45:04;11.85;81.05
86242;DHT22;76911;51.784;4.658;2024-03-22T01:47:30;11.86;80.92
86242;DHT22;76911;51.784;4.658;2024-03-22T01:49:57;11.83;81.01
86242;DHT22;76911;51.784;4.658;2024-03-22T01:52:22;11.82;80.98
86242;DHT22;76911;51.784;4.658;2024-03-22T01:54:49;11.83;80.93
86242;DHT22;76911;51.784;4.658;2024-03-22T01:57:15;11.79;80.79
86242;DHT22;76911;51.784;4.658;2024-03-22T01:59:41;11.74;80.70
86242;DHT22;76911;51.784;4.658;2024-03-22T02:02:06;11.71;80.57
86242;DHT22;76911;51.784;4.658;2024-03-22T02:04:32;11.64;80.62
86242;DHT22;76911;51.784;4.658;2024-03-22T02:06:57;11.57;80.88
86242;DHT22;76911;51.784;4.658;2024-03-22T02:09:23;11.48;81.05
86242;DHT22;76911;51.784;4.658;2024-03-22T02:11:49;11.42;81.47
86242;DHT22;76911;51.784;4.658;2024-03-22T02:14:14;11.47;81.18
86242;DHT22;76911;51.784;4.658;2024-03-22T02:16:40;11.50;81.03
86242;DHT22;76911;51.784;4.658;2024-03-22T02:19:06;11.50;81.05
86242;DHT22;76911;51.784;4.658;2024-03-22T02:21:32;11.44;81.38
86242;DHT22;76911;51.784;4.658;2024-03-22T02:23:57;11.50;81.15
86242;DHT22;76911;51.784;4.658;2024-03-22T02:26:23;11.52;81.08
86242;DHT22;76911;51.784;4.658;2024-03-22T02:28:48;11.54;81.10
86242;DHT22;76911;51.784;4.658;2024-03-22T02:31:14;11.54;81.03
86242;DHT22;76911;51.784;4.658;2024-03-22T02:33:39;11.57;80.88
86242;DHT22;76911;51.784;4.658;2024-03-22T02:36:05;11.60;80.89
86242;DHT22;76911;51.784;4.658;2024-03-22T02:38:30;11.55;80.96
86242;DHT22;76911;51.784;4.658;2024-03-22T02:40:58;11.52;81.14
86242;DHT22;76911;51.784;4.658;2024-03-22T02:43:23;11.54;80.92
86242;DHT22;76911;51.784;4.658;2024-03-22T02:45:49;11.51;81.11
86242;DHT22;76911;51.784;4.658;2024-03-22T02:48:14;11.51;81.16
86242;DHT22;76911;51.784;4.658;2024-03-22T02:50:40;11.52;81.15
86242;DHT22;76911;51.784;4.658;2024-03-22T02:53:06;11.54;80.90
86242;DHT22;76911;51.784;4.658;2024-03-22T02:55:38;11.50;81.05
86242;DHT22;76911;51.784;4.658;2024-03-22T02:58:05;11.51;80.99
86242;DHT22;76911;51.784;4.658;2024-03-22T03:00:31;11.55;81.00
86242;DHT22;76911;51.784;4.658;2024-03-22T03:02:56;11.58;80.84
86242;DHT22;76911;51.784;4.658;2024-03-22T03:05:22;11.55;80.97
86242;DHT22;76911;51.784;4.658;2024-03-22T03:07:50;11.50;81.32
86242;DHT22;76911;51.784;4.658;2024-03-22T03:10:16;11.52;81.43
86242;DHT22;76911;51.784;4.658;2024-03-22T03:12:42;11.55;81.27
86242;DHT22;76911;51.784;4.658;2024-03-22T03:15:07;11.60;81.23
86242;DHT22;76911;51.784;4.658;2024-03-22T03:17:33;11.64;81.15
86242;DHT22;76911;51.784;4.658;2024-03-22T03:19:58;11.52;81.68
86242;DHT22;76911;51.784;4.658;2024-03-22T03:22:24;11.52;81.45
86242;DHT22;76911;51.784;4.658;2024-03-22T03:24:49;11.47;81.33
86242;DHT22;76911;51.784;4.658;2024-03-22T03:27:15;11.45;81.30
86242;DHT22;76911;51.784;4.658;2024-03-22T03:29:40;11.40;81.57
86242;DHT22;76911;51.784;4.658;2024-03-22T03:32:06;11.37;81.81
86242;DHT22;76911;51.784;4.658;2024-03-22T03:34:31;11.28;82.14
86242;DHT22;76911;51.784;4.658;2024-03-22T03:36:56;11.17;82.55
86242;DHT22;76911;51.784;4.658;2024-03-22T03:39:26;11.16;82.43
86242;DHT22;76911;51.784;4.658;2024-03-22T03:41:51;11.07;82.59
86242;DHT22;76911;51.784;4.658;2024-03-22T03:44:17;11.07;82.59
86242;DHT22;76911;51.784;4.658;2024-03-22T03:46:42;11.13;82.48
86242;DHT22;76911;51.784;4.658;2024-03-22T03:49:08;11.17;82.27
86242;DHT22;76911;51.784;4.658;2024-03-22T03:51:33;11.19;82.29
86242;DHT22;76911;51.784;4.658;2024-03-22T03:53:59;11.23;81.98
86242;DHT22;76911;51.784;4.658;2024-03-22T03:56:24;11.16;82.19
86242;DHT22;76911;51.784;4.658;2024-03-22T03:58:49;11.07;82.54
86242;DHT22;76911;51.784;4.658;2024-03-22T04:01:15;11.09;82.50
86242;DHT22;76911;51.784;4.658;2024-03-22T04:03:40;11.09;82.28
86242;DHT22;76911;51.784;4.658;2024-03-22T04:06:06;11.00;82.57
86242;DHT22;76911;51.784;4.658;2024-03-22T04:08:32;10.97;82.51
86242;DHT22;76911;51.784;4.658;2024-03-22T04:10:57;10.91;82.83
86242;DHT22;76911;51.784;4.658;2024-03-22T04:13:24;10.86;83.00
86242;DHT22;76911;51.784;4.658;2024-03-22T04:15:50;10.83;83.00
86242;DHT22;76911;51.784;4.658;2024-03-22T04:18:15;10.88;82.91
86242;DHT22;76911;51.784;4.658;2024-03-22T04:20:41;10.83;82.90
86242;DHT22;76911;51.784;4.658;2024-03-22T04:23:06;10.89;82.85
86242;DHT22;76911;51.784;4.658;2024-03-22T04:25:32;10.93;82.74
86242;DHT22;76911;51.784;4.658;2024-03-22T04:27:57;10.95;82.70
86242;DHT22;76911;51.784;4.658;2024-03-22T04:30:23;10.91;83.02
86242;DHT22;76911;51.784;4.658;2024-03-22T04:32:48;10.91;82.85
86242;DHT22;76911;51.784;4.658;2024-03-22T04:35:14;10.92;82.80
86242;DHT22;76911;51.784;4.658;2024-03-22T04:37:39;10.96;82.71
86242;DHT22;76911;51.784;4.658;2024-03-22T04:40:05;10.93;82.67
86242;DHT22;76911;51.784;4.658;2024-03-22T04:42:31;10.93;82.68
86242;DHT22;76911;51.784;4.658;2024-03-22T04:44:57;11.02;82.35
86242;DHT22;76911;51.784;4.658;2024-03-22T04:47:23;10.99;82.38
86242;DHT22;76911;51.784;4.658;2024-03-22T04:49:49;11.02;82.47
86242;DHT22;76911;51.784;4.658;2024-03-22T04:52:14;11.02;82.53
86242;DHT22;76911;51.784;4.658;2024-03-22T04:54:39;11.03;82.46
86242;DHT22;76911;51.784;4.658;2024-03-22T04:57:05;11.03;82.56
86242;DHT22;76911;51.784;4.658;2024-03-22T04:59:30;11.07;82.35
86242;DHT22;76911;51.784;4.658;2024-03-22T05:01:56;11.09;82.16
86242;DHT22;76911;51.784;4.658;2024-03-22T05:04:21;11.12;81.94
86242;DHT22;76911;51.784;4.658;2024-03-22T05:06:47;11.17;81.87
86242;DHT22;76911;51.784;4.658;2024-03-22T05:09:12;11.17;81.70
86242;DHT22;76911;51.784;4.658;2024-03-22T05:11:38;11.16;81.70
86242;DHT22;76911;51.784;4.658;2024-03-22T05:14:03;11.13;81.94
86242;DHT22;76911;51.784;4.658;2024-03-22T05:16:29;11.10;81.98
86242;DHT22;76911;51.784;4.658;2024-03-22T05:18:54;11.13;81.80
86242;DHT22;76911;51.784;4.658;2024-03-22T05:21:19;11.19;81.71
86242;DHT22;76911;51.784;4.658;2024-03-22T05:23:45;11.24;81.43
86242;DHT22;76911;51.784;4.658;2024-03-22T05:26:11;11.24;81.48
86242;DHT22;76911;51.784;4.658;2024-03-22T05:28:36;11.20;81.50
86242;DHT22;76911;51.784;4.658;2024-03-22T05:31:02;11.21;81.44
86242;DHT22;76911;51.784;4.658;2024-03-22T05:33:28;11.23;81.27
86242;DHT22;76911;51.784;4.658;2024-03-22T05:35:53;11.19;81.34
86242;DHT22;76911;51.784;4.658;2024-03-22T05:38:19;11.26;81.16
86242;DHT22;76911;51.784;4.658;2024-03-22T05:40:44;11.21;81.19
86242;DHT22;76911;51.784;4.658;2024-03-22T05:43:13;11.12;81.62
86242;DHT22;76911;51.784;4.658;2024-03-22T05:45:38;11.12;81.67
86242;DHT22;76911;51.784;4.658;2024-03-22T05:48:04;11.13;81.55
86242;DHT22;76911;51.784;4.658;2024-03-22T05:50:30;11.12;81.65
86242;DHT22;76911;51.784;4.658;2024-03-22T05:52:55;11.09;81.67
86242;DHT22;76911;51.784;4.658;2024-03-22T05:55:20;11.14;81.48
86242;DHT22;76911;51.784;4.658;2024-03-22T05:57:46;11.13;81.75
86242;DHT22;76911;51.784;4.658;2024-03-22T06:00:12;11.12;81.69
86242;DHT22;76911;51.784;4.658;2024-03-22T06:02:38;11.19;81.58
86242;DHT22;76911;51.784;4.658;2024-03-22T06:05:04;11.20;81.44
86242;DHT22;76911;51.784;4.658;2024-03-22T06:07:30;11.16;81.52
86242;DHT22;76911;51.784;4.658;2024-03-22T06:10:00;11.17;81.56
86242;DHT22;76911;51.784;4.658;2024-03-22T06:12:26;11.23;81.44
86242;DHT22;76911;51.784;4.658;2024-03-22T06:14:51;11.17;81.63
86242;DHT22;76911;51.784;4.658;2024-03-22T06:17:17;11.14;81.83
86242;DHT22;76911;51.784;4.658;2024-03-22T06:19:42;11.12;81.82
86242;DHT22;76911;51.784;4.658;2024-03-22T06:22:08;11.13;81.77
86242;DHT22;76911;51.784;4.658;2024-03-22T06:24:33;11.13;81.83
86242;DHT22;76911;51.784;4.658;2024-03-22T06:26:59;11.19;81.65
86242;DHT22;76911;51.784;4.658;2024-03-22T06:29:25;11.21;81.57
86242;DHT22;76911;51.784;4.658;2024-03-22T06:31:51;11.19;81.71
86242;DHT22;76911;51.784;4.658;2024-03-22T06:34:17;11.21;81.53
86242;DHT22;76911;51.784;4.658;2024-03-22T06:36:43;11.17;81.62
86242;DHT22;76911;51.784;4.658;2024-03-22T06:39:08;11.28;81.20
86242;DHT22;76911;51.784;4.658;2024-03-22T06:41:35;11.24;81.20
86242;DHT22;76911;51.784;4.658;2024-03-22T06:44:01;11.28;80.96
86242;DHT22;76911;51.784;4.658;2024-03-22T06:46:27;11.33;81.06
86242;DHT22;76911;51.784;4.658;2024-03-22T06:48:52;11.41;80.68
86242;DHT22;76911;51.784;4.658;2024-03-22T06:51:18;11.40;80.61
86242;DHT22;76911;51.784;4.658;2024-03-22T06:53:43;11.45;80.53
86242;DHT22;76911;51.784;4.658;2024-03-22T06:56:10;11.42;80.63
86242;DHT22;76911;51.784;4.658;2024-03-22T06:58:38;11.50;80.48
86242;DHT22;76911;51.784;4.658;2024-03-22T07:01:03;11.57;80.05
86242;DHT22;76911;51.784;4.658;2024-03-22T07:03:29;11.57;80.12
86242;DHT22;76911;51.784;4.658;2024-03-22T07:05:55;11.57;80.24
86242;DHT22;76911;51.784;4.658;2024-03-22T07:08:21;11.52;80.02
86242;DHT22;76911;51.784;4.658;2024-03-22T07:10:46;11.55;80.40
86242;DHT22;76911;51.784;4.658;2024-03-22T07:13:12;11.52;80.50
86242;DHT22;76911;51.784;4.658;2024-03-22T07:15:37;11.60;80.18
86242;DHT22;76911;51.784;4.658;2024-03-22T07:18:03;11.67;79.77
86242;DHT22;76911;51.784;4.658;2024-03-22T07:20:30;11.68;79.82
86242;DHT22;76911;51.784;4.658;2024-03-22T07:22:55;11.71;79.43
86242;DHT22;76911;51.784;4.658;2024-03-22T07:25:21;11.75;79.66
86242;DHT22;76911;51.784;4.658;2024-03-22T07:27:46;11.65;79.93
86242;DHT22;76911;51.784;4.658;2024-03-22T07:30:14;11.61;79.84
86242;DHT22;76911;51.784;4.658;2024-03-22T07:32:40;11.62;79.93
86242;DHT22;76911;51.784;4.658;2024-03-22T07:35:05;11.69;79.85
86242;DHT22;76911;51.784;4.658;2024-03-22T07:37:31;11.68;79.84
86242;DHT22;76911;51.784;4.658;2024-03-22T07:39:56;11.72;79.80
86242;DHT22;76911;51.784;4.658;2024-03-22T07:42:22;11.71;79.42
86242;DHT22;76911;51.784;4.658;2024-03-22T07:44:47;11.77;79.59
86242;DHT22;76911;51.784;4.658;2024-03-22T07:47:13;11.78;79.14
86242;DHT22;76911;51.784;4.658;2024-03-22T07:49:38;11.81;79.07
86242;DHT22;76911;51.784;4.658;2024-03-22T07:52:04;11.86;78.96
86242;DHT22;76911;51.784;4.658;2024-03-22T07:54:30;11.79;78.86
86242;DHT22;76911;51.784;4.658;2024-03-22T07:56:55;11.78;79.32
86242;DHT22;76911;51.784;4.658;2024-03-22T07:59:21;11.79;79.25
86242;DHT22;76911;51.784;4.658;2024-03-22T08:01:46;11.79;79.12
86242;DHT22;76911;51.784;4.658;2024-03-22T08:04:12;11.77;79.21
86242;DHT22;76911;51.784;4.658;2024-03-22T08:06:37;11.88;78.90
86242;DHT22;76911;51.784;4.658;2024-03-22T08:09:03;11.83;78.71
86242;DHT22;76911;51.784;4.658;2024-03-22T08:11:28;11.82;79.17
86242;DHT22;76911;51.784;4.658;2024-03-22T08:13:54;11.79;78.99
86242;DHT22;76911;51.784;4.658;2024-03-22T08:16:27;11.81;78.94
86242;DHT22;76911;51.784;4.658;2024-03-22T08:18:52;11.85;78.54
86242;DHT22;76911;51.784;4.658;2024-03-22T08:21:18;11.79;78.55
86242;DHT22;76911;51.784;4.658;2024-03-22T08:23:43;11.75;78.95
86242;DHT22;76911;51.784;4.658;2024-03-22T08:26:09;11.89;78.60
86242;DHT22;76911;51.784;4.658;2024-03-22T08:28:34;11.85;78.49
86242;DHT22;76911;51.784;4.658;2024-03-22T08:31:04;11.93;78.40
86242;DHT22;76911;51.784;4.658;2024-03-22T08:33:29;11.95;78.27
86242;DHT22;76911;51.784;4.658;2024-03-22T08:35:54;11.93;78.25
86242;DHT22;76911;51.784;4.658;2024-03-22T08:38:20;11.96;78.14
86242;DHT22;76911;51.784;4.658;2024-03-22T08:40:45;11.99;77.75
86242;DHT22;76911;51.784;4.658;2024-03-22T08:43:11;11.96;77.95
86242;DHT22;76911;51.784;4.658;2024-03-22T08:45:36;11.98;77.96
86242;DHT22;76911;51.784;4.658;2024-03-22T08:48:02;11.98;78.06
86242;DHT22;76911;51.784;4.658;2024-03-22T08:50:28;11.96;77.92
86242;DHT22;76911;51.784;4.658;2024-03-22T08:52:53;11.92;77.95
86242;DHT22;76911;51.784;4.658;2024-03-22T08:55:19;11.85;78.26
86242;DHT22;76911;51.784;4.658;2024-03-22T08:57:44;11.91;78.19
86242;DHT22;76911;51.784;4.658;2024-03-22T09:00:10;11.95;77.92
86242;DHT22;76911;51.784;4.658;2024-03-22T09:02:36;11.98;78.37
86242;DHT22;76911;51.784;4.658;2024-03-22T09:05:04;11.86;78.52
86242;DHT22;76911;51.784;4.658;2024-03-22T09:07:29;11.77;79.56
86242;DHT22;76911;51.784;4.658;2024-03-22T09:09:55;11.86;79.24
86242;DHT22;76911;51.784;4.658;2024-03-22T09:12:21;11.92;79.38
86242;DHT22;76911;51.784;4.658;2024-03-22T09:14:46;11.93;79.82
86242;DHT22;76911;51.784;4.658;2024-03-22T09:17:12;11.77;80.25
86242;DHT22;76911;51.784;4.658;2024-03-22T09:19:37;11.74;80.69
86242;DHT22;76911;51.784;4.658;2024-03-22T09:22:03;11.71;81.19
86242;DHT22;76911;51.784;4.658;2024-03-22T09:24:28;11.65;81.46
86242;DHT22;76911;51.784;4.658;2024-03-22T09:26:54;11.78;81.55
86242;DHT22;76911;51.784;4.658;2024-03-22T09:29:19;11.72;82.07
86242;DHT22;76911;51.784;4.658;2024-03-22T09:31:45;11.64;82.50
86242;DHT22;76911;51.784;4.658;2024-03-22T09:34:12;11.67;82.86
86242;DHT22;76911;51.784;4.658;2024-03-22T09:36:37;11.71;82.86
86242;DHT22;76911;51.784;4.658;2024-03-22T09:39:03;11.71;83.48
86242;DHT22;76911;51.784;4.658;2024-03-22T09:41:31;11.62;83.64
86242;DHT22;76911;51.784;4.658;2024-03-22T09:43:58;11.61;84.28
86242;DHT22;76911;51.784;4.658;2024-03-22T09:46:26;11.61;84.07
86242;DHT22;76911;51.784;4.658;2024-03-22T09:48:54;11.61;84.55
86242;DHT22;76911;51.784;4.658;2024-03-22T09:51:21;11.58;84.85
86242;DHT22;76911;51.784;4.658;2024-03-22T09:53:52;11.51;84.88
86242;DHT22;76911;51.784;4.658;2024-03-22T09:56:21;11.60;85.27
86242;DHT22;76911;51.784;4.658;2024-03-22T09:58:47;11.67;84.93
86242;DHT22;76911;51.784;4.658;2024-03-22T10:01:13;11.58;84.93
86242;DHT22;76911;51.784;4.658;2024-03-22T10:03:38;11.54;85.15
86242;DHT22;76911;51.784;4.658;2024-03-22T10:06:04;11.47;85.47
86242;DHT22;76911;51.784;4.658;2024-03-22T10:08:30;11.51;85.29
86242;DHT22;76911;51.784;4.658;2024-03-22T10:10:56;11.51;85.08
86242;DHT22;76911;51.784;4.658;2024-03-22T10:13:21;11.50;85.36
86242;DHT22;76911;51.784;4.658;2024-03-22T10:15:47;11.55;85.00
86242;DHT22;76911;51.784;4.658;2024-03-22T10:18:14;11.58;84.90
86242;DHT22;76911;51.784;4.658;2024-03-22T10:20:40;11.52;85.01
86242;DHT22;76911;51.784;4.658;2024-03-22T10:23:08;11.51;85.49
86242;DHT22;76911;51.784;4.658;2024-03-22T10:25:34;11.54;85.52
86242;DHT22;76911;51.784;4.658;2024-03-22T10:27:59;11.52;85.21
86242;DHT22;76911;51.784;4.658;2024-03-22T10:30:25;11.57;85.45
86242;DHT22;76911;51.784;4.658;2024-03-22T10:32:51;11.55;85.21
86242;DHT22;76911;51.784;4.658;2024-03-22T10:35:18;11.50;85.59
86242;DHT22;76911;51.784;4.658;2024-03-22T10:37:44;11.52;85.30
86242;DHT22;76911;51.784;4.658;2024-03-22T10:40:10;11.48;85.83
86242;DHT22;76911;51.784;4.658;2024-03-22T10:42:41;11.42;85.78
86242;DHT22;76911;51.784;4.658;2024-03-22T10:45:09;11.48;85.57
86242;DHT22;76911;51.784;4.658;2024-03-22T10:47:36;11.45;85.84
86242;DHT22;76911;51.784;4.658;2024-03-22T10:50:10;11.47;85.85
86242;DHT22;76911;51.784;4.658;2024-03-22T10:52:49;11.44;85.76
86242;DHT22;76911;51.784;4.658;2024-03-22T10:55:33;11.45;85.95
86242;DHT22;76911;51.784;4.658;2024-03-22T10:57:59;11.50;86.14
86242;DHT22;76911;51.784;4.658;2024-03-22T11:00:32;11.47;85.94
86242;DHT22;76911;51.784;4.658;2024-03-22T11:02:59;11.48;86.03
86242;DHT22;76911;51.784;4.658;2024-03-22T11:05:26;11.48;86.19
86242;DHT22;76911;51.784;4.658;2024-03-22T11:08:02;11.57;85.69
86242;DHT22;76911;51.784;4.658;2024-03-22T11:10:38;11.60;85.93
86242;DHT22;76911;51.784;4.658;2024-03-22T11:13:05;11.65;85.63
86242;DHT22;76911;51.784;4.658;2024-03-22T11:15:32;11.72;85.87
86242;DHT22;76911;51.784;4.658;2024-03-22T11:17:59;11.75;85.39
86242;DHT22;76911;51.784;4.658;2024-03-22T11:20:28;11.67;86.06
86242;DHT22;76911;51.784;4.658;2024-03-22T11:22:55;11.65;85.29
86242;DHT22;76911;51.784;4.658;2024-03-22T11:25:21;11.67;85.93
86242;DHT22;76911;51.784;4.658;2024-03-22T11:27:47;11.65;86.26
86242;DHT22;76911;51.784;4.658;2024-03-22T11:30:12;11.64;86.24
86242;DHT22;76911;51.784;4.658;2024-03-22T11:32:39;11.61;86.10
86242;DHT22;76911;51.784;4.658;2024-03-22T11:35:10;11.68;86.10
86242;DHT22;76911;51.784;4.658;2024-03-22T11:37:38;11.74;86.00
86242;DHT22;76911;51.784;4.658;2024-03-22T11:40:04;11.82;86.01
86242;DHT22;76911;51.784;4.658;2024-03-22T11:42:34;11.79;85.63
86242;DHT22;76911;51.784;4.658;2024-03-22T11:45:01;11.79;85.37
86242;DHT22;76911;51.784;4.658;2024-03-22T11:47:27;11.81;85.72
86242;DHT22;76911;51.784;4.658;2024-03-22T11:49:54;11.88;85.88
86242;DHT22;76911;51.784;4.658;2024-03-22T11:52:27;11.75;85.61
86242;DHT22;76911;51.784;4.658;2024-03-22T11:54:52;11.65;86.14
86242;DHT22;76911;51.784;4.658;2024-03-22T11:57:20;11.71;85.97
86242;DHT22;76911;51.784;4.658;2024-03-22T11:59:46;11.69;86.25
86242;DHT22;76911;51.784;4.658;2024-03-22T12:02:11;11.71;85.34
86242;DHT22;76911;51.784;4.658;2024-03-22T12:04:45;11.74;85.28
86242;DHT22;76911;51.784;4.658;2024-03-22T12:07:13;11.79;83.88
86242;DHT22;76911;51.784;4.658;2024-03-22T12:09:40;11.81;84.15
86242;DHT22;76911;51.784;4.658;2024-03-22T12:12:08;11.89;84.10
86242;DHT22;76911;51.784;4.658;2024-03-22T12:14:35;11.88;82.12
86242;DHT22;76911;51.784;4.658;2024-03-22T12:17:02;11.75;84.12
86242;DHT22;76911;51.784;4.658;2024-03-22T12:19:28;11.65;82.53
86242;DHT22;76911;51.784;4.658;2024-03-22T12:21:53;11.57;83.30
86242;DHT22;76911;51.784;4.658;2024-03-22T12:24:19;11.57;83.75
86242;DHT22;76911;51.784;4.658;2024-03-22T12:26:44;11.48;84.12
86242;DHT22;76911;51.784;4.658;2024-03-22T12:29:12;11.40;84.50
86242;DHT22;76911;51.784;4.658;2024-03-22T12:31:38;11.45;84.72
86242;DHT22;76911;51.784;4.658;2024-03-22T12:34:04;11.54;84.21
86242;DHT22;76911;51.784;4.658;2024-03-22T12:36:29;11.64;84.82
86242;DHT22;76911;51.784;4.658;2024-03-22T12:38:54;11.75;83.25
86242;DHT22;76911;51.784;4.658;2024-03-22T12:41:20;11.86;83.26
86242;DHT22;76911;51.784;4.658;2024-03-22T12:43:45;11.92;83.20
86242;DHT22;76911;51.784;4.658;2024-03-22T12:46:11;11.95;82.55
86242;DHT22;76911;51.784;4.658;2024-03-22T12:48:36;11.98;82.74
86242;DHT22;76911;51.784;4.658;2024-03-22T12:51:02;11.98;82.56
86242;DHT22;76911;51.784;4.658;2024-03-22T12:53:28;12.03;82.70
86242;DHT22;76911;51.784;4.658;2024-03-22T12:55:53;12.06;83.29
86242;DHT22;76911;51.784;4.658;2024-03-22T12:58:18;12.10;82.83
86242;DHT22;76911;51.784;4.658;2024-03-22T13:00:44;12.06;82.45
86242;DHT22;76911;51.784;4.658;2024-03-22T13:03:10;11.96;83.43
86242;DHT22;76911;51.784;4.658;2024-03-22T13:05:37;11.96;83.12
86242;DHT22;76911;51.784;4.658;2024-03-22T13:08:02;11.92;83.81
86242;DHT22;76911;51.784;4.658;2024-03-22T13:10:28;11.93;83.95
86242;DHT22;76911;51.784;4.658;2024-03-22T13:12:53;11.96;84.40
86242;DHT22;76911;51.784;4.658;2024-03-22T13:15:19;11.88;84.47
86242;DHT22;76911;51.784;4.658;2024-03-22T13:17:44;11.95;85.04
86242;DHT22;76911;51.784;4.658;2024-03-22T13:20:10;11.99;84.91
86242;DHT22;76911;51.784;4.658;2024-03-22T13:22:37;11.98;84.97
86242;DHT22;76911;51.784;4.658;2024-03-22T13:25:04;11.99;84.53
86242;DHT22;76911;51.784;4.658;2024-03-22T13:27:35;12.00;84.47
86242;DHT22;76911;51.784;4.658;2024-03-22T13:30:02;11.95;84.84
86242;DHT22;76911;51.784;4.658;2024-03-22T13:32:28;12.00;84.30
86242;DHT22;76911;51.784;4.658;2024-03-22T13:34:53;11.98;85.35
86242;DHT22;76911;51.784;4.658;2024-03-22T13:37:19;11.95;84.55
86242;DHT22;76911;51.784;4.658;2024-03-22T13:39:50;11.98;84.89
86242;DHT22;76911;51.784;4.658;2024-03-22T13:42:15;11.96;84.75
86242;DHT22;76911;51.784;4.658;2024-03-22T13:44:42;11.93;85.19
86242;DHT22;76911;51.784;4.658;2024-03-22T13:47:08;11.67;84.92
86242;DHT22;76911;51.784;4.658;2024-03-22T13:49:34;11.64;85.71
86242;DHT22;76911;51.784;4.658;2024-03-22T13:51:59;11.72;85.46
86242;DHT22;76911;51.784;4.658;2024-03-22T13:54:25;11.74;84.76
86242;DHT22;76911;51.784;4.658;2024-03-22T13:56:51;11.61;85.34
86242;DHT22;76911;51.784;4.658;2024-03-22T13:59:16;11.68;85.62
86242;DHT22;76911;51.784;4.658;2024-03-22T14:01:42;11.69;84.49
86242;DHT22;76911;51.784;4.658;2024-03-22T14:04:11;11.54;82.89
86242;DHT22;76911;51.784;4.658;2024-03-22T14:06:38;11.27;82.72
86242;DHT22;76911;51.784;4.658;2024-03-22T14:09:03;11.07;83.96
86242;DHT22;76911;51.784;4.658;2024-03-22T14:11:33;11.02;84.37
86242;DHT22;76911;51.784;4.658;2024-03-22T14:13:58;11.16;85.06
86242;DHT22;76911;51.784;4.658;2024-03-22T14:16:24;11.34;85.00
86242;DHT22;76911;51.784;4.658;2024-03-22T14:18:50;11.41;83.44
86242;DHT22;76911;51.784;4.658;2024-03-22T14:21:16;11.50;84.10
86242;DHT22;76911;51.784;4.658;2024-03-22T14:23:46;11.58;83.16
86242;DHT22;76911;51.784;4.658;2024-03-22T14:26:12;11.60;83.99
86242;DHT22;76911;51.784;4.658;2024-03-22T14:28:38;11.57;83.73
86242;DHT22;76911;51.784;4.658;2024-03-22T14:31:09;11.57;83.60
86242;DHT22;76911;51.784;4.658;2024-03-22T14:33:35;11.60;83.92
86242;DHT22;76911;51.784;4.658;2024-03-22T14:36:02;11.61;84.17
86242;DHT22;76911;51.784;4.658;2024-03-22T14:38:28;11.58;84.31
86242;DHT22;76911;51.784;4.658;2024-03-22T14:40:54;11.55;84.41
86242;DHT22;76911;51.784;4.658;2024-03-22T14:43:21;11.65;84.18
86242;DHT22;76911;51.784;4.658;2024-03-22T14:45:46;11.64;84.27
86242;DHT22;76911;51.784;4.658;2024-03-22T14:48:11;11.69;84.04
86242;DHT22;76911;51.784;4.658;2024-03-22T14:50:37;11.60;84.62
86242;DHT22;76911;51.784;4.658;2024-03-22T14:53:04;11.64;83.48
86242;DHT22;76911;51.784;4.658;2024-03-22T14:55:29;11.67;83.92
86242;DHT22;76911;51.784;4.658;2024-03-22T14:57:55;11.65;83.21
86242;DHT22;76911;51.784;4.658;2024-03-22T15:00:20;11.71;83.76
86242;DHT22;76911;51.784;4.658;2024-03-22T15:02:46;11.65;82.82
86242;DHT22;76911;51.784;4.658;2024-03-22T15:05:13;11.64;83.57
86242;DHT22;76911;51.784;4.658;2024-03-22T15:07:38;11.65;83.83
86242;DHT22;76911;51.784;4.658;2024-03-22T15:10:04;11.65;83.26
86242;DHT22;76911;51.784;4.658;2024-03-22T15:12:30;11.69;82.99
86242;DHT22;76911;51.784;4.658;2024-03-22T15:14:56;11.68;83.43
86242;DHT22;76911;51.784;4.658;2024-03-22T15:17:21;11.68;82.66
86242;DHT22;76911;51.784;4.658;2024-03-22T15:19:49;11.71;83.65
86242;DHT22;76911;51.784;4.658;2024-03-22T15:22:15;11.81;82.65